createdAt,value
2023-04-09T00:05:04.024Z,66.93
2023-04-09T00:10:25.601Z,66.97
2023-04-09T00:22:02.051Z,66.58
2023-04-09T00:27:23.765Z,66.73
2023-04-09T00:32:54.588Z,66.62
2023-04-09T00:38:17.213Z,66.38
2023-04-09T00:43:38.791Z,66.53
2023-04-09T00:49:45.400Z,66.44
2023-04-09T01:01:23.171Z,66.26
2023-04-09T01:07:11.763Z,66.20
2023-04-09T01:12:48.586Z,66.14
2023-04-09T01:18:23.481Z,66.16
2023-04-09T01:23:52.679Z,66.13
2023-04-09T01:29:16.043Z,65.95
2023-04-09T01:34:39.067Z,65.98
2023-04-09T01:40:01.674Z,65.87
2023-04-09T01:45:23.683Z,66.01
2023-04-09T01:50:45.993Z,65.68
2023-04-09T01:56:08.604Z,65.81
2023-04-09T02:01:34.110Z,65.72
2023-04-09T02:07:04.304Z,66.07
2023-04-09T02:12:26.181Z,65.87
2023-04-09T02:17:48.697Z,66.24
2023-04-09T02:23:10.514Z,66.03
2023-04-09T02:28:32.341Z,66.03
2023-04-09T02:33:54.390Z,65.84
2023-04-09T02:39:16.573Z,66.02
2023-04-09T02:44:38.056Z,66.19
2023-04-09T02:50:00.355Z,65.77
2023-04-09T02:55:25.459Z,66.06
2023-04-09T03:00:47.177Z,65.86
2023-04-09T03:06:09.011Z,65.97
2023-04-09T03:11:30.651Z,66.16
2023-04-09T03:16:52.241Z,66.42
2023-04-09T03:22:14.189Z,66.29
2023-04-09T03:27:36.526Z,65.85
2023-04-09T03:58:12.671Z,66.11
2023-04-09T04:03:34.556Z,66.38
2023-04-09T04:09:17.863Z,66.48
2023-04-09T04:14:59.472Z,66.63
2023-04-09T04:33:04.359Z,66.51
2023-04-09T04:38:34.882Z,66.53
2023-04-09T04:44:00.370Z,66.72
2023-04-09T04:49:21.928Z,66.80
2023-04-09T04:54:46.512Z,66.85
2023-04-09T05:00:14.174Z,67.20
2023-04-09T05:05:36.518Z,66.94
2023-04-09T05:11:30.351Z,67.01
2023-04-09T05:16:52.470Z,67.08
2023-04-09T05:22:18.624Z,67.15
2023-04-09T05:27:41.225Z,66.85
2023-04-09T05:33:03.083Z,66.80
2023-04-09T05:38:26.220Z,66.93
2023-04-09T05:43:51.846Z,66.87
2023-04-09T05:49:14.420Z,66.48
2023-04-09T05:54:38.412Z,66.77
2023-04-09T06:00:03.689Z,66.58
2023-04-09T06:05:37.836Z,67.03
2023-04-09T06:10:59.652Z,66.86
2023-04-09T06:16:21.318Z,66.57
2023-04-09T06:21:42.817Z,66.60
2023-04-09T06:27:04.644Z,66.49
2023-04-09T06:32:27.273Z,66.54
2023-04-09T06:44:05.585Z,65.72
2023-04-09T06:50:05.940Z,65.42
2023-04-09T06:55:28.615Z,65.12
2023-04-09T07:01:32.786Z,65.20
2023-04-09T07:07:23.259Z,65.11
2023-04-09T07:12:53.348Z,65.47
2023-04-09T07:18:59.834Z,63.37
2023-04-09T07:24:32.847Z,62.92
2023-04-09T07:29:58.530Z,62.09
2023-04-09T07:36:23.094Z,62.14
2023-04-09T07:41:51.303Z,62.10
2023-04-09T07:47:49.311Z,59.87
2023-04-09T07:53:19.079Z,56.21
2023-04-09T07:58:40.002Z,55.64
2023-04-09T08:04:01.483Z,57.39
2023-04-09T08:09:22.835Z,58.59
2023-04-09T08:14:44.621Z,59.30
2023-04-09T08:20:06.337Z,59.60
2023-04-09T08:25:27.564Z,58.66
2023-04-09T08:30:48.568Z,61.85
2023-04-09T08:36:09.505Z,43.95
2023-04-09T08:41:30.589Z,36.71
2023-04-09T08:46:51.366Z,36.03
2023-04-09T08:52:12.063Z,35.32
2023-04-09T08:57:40.304Z,32.07
2023-04-09T09:03:08.533Z,31.74
2023-04-09T09:08:30.726Z,32.54
2023-04-09T09:13:58.119Z,29.07
2023-04-09T09:19:24.769Z,27.13
2023-04-09T09:24:50.322Z,20.24
2023-04-09T09:30:21.673Z,22.05
2023-04-09T09:35:50.171Z,20.43
2023-04-09T09:41:17.078Z,22.36
2023-04-09T09:46:39.374Z,22.94
2023-04-09T09:52:00.578Z,22.45
2023-04-09T09:57:23.699Z,17.54
2023-04-09T10:02:48.387Z,15.64
2023-04-09T10:08:09.700Z,14.42
2023-04-09T10:13:56.598Z,14.03
2023-04-09T10:19:17.340Z,16.11
2023-04-09T10:24:38.207Z,17.90
2023-04-09T10:30:00.332Z,19.19
2023-04-09T10:35:25.794Z,18.25
2023-04-09T10:40:50.936Z,18.82
2023-04-09T10:46:31.328Z,21.46
2023-04-09T10:51:52.910Z,21.23
2023-04-09T10:57:14.060Z,22.26
2023-04-09T11:02:38.133Z,22.56
2023-04-09T11:08:03.340Z,26.24
2023-04-09T11:13:24.280Z,25.92
2023-04-09T11:18:45.520Z,27.50
2023-04-09T11:24:06.292Z,28.03
2023-04-09T11:29:27.240Z,27.99
2023-04-09T11:34:47.870Z,31.03
2023-04-09T11:40:32.252Z,33.07
2023-04-09T11:45:53.385Z,32.00
2023-04-09T11:51:14.048Z,33.43
2023-04-09T11:56:36.277Z,35.77
2023-04-09T12:02:00.658Z,36.33
2023-04-09T12:07:22.535Z,37.87
2023-04-09T12:12:44.234Z,40.40
2023-04-09T12:18:08.323Z,41.26
2023-04-09T12:23:31.457Z,42.07
2023-04-09T12:28:52.730Z,43.29
2023-04-09T12:34:13.633Z,43.44
2023-04-09T12:39:34.540Z,43.85
2023-04-09T12:44:55.159Z,44.14
2023-04-09T12:50:16.313Z,45.28
2023-04-09T12:55:37.382Z,46.24
2023-04-09T13:00:58.736Z,47.09
2023-04-09T13:06:19.604Z,47.16
2023-04-09T13:11:40.813Z,47.05
2023-04-09T13:17:01.887Z,47.74
2023-04-09T13:22:22.664Z,48.60
2023-04-09T13:27:43.472Z,48.66
2023-04-09T13:33:04.310Z,48.39
2023-04-09T13:38:24.970Z,48.08
2023-04-09T13:43:45.943Z,48.31
2023-04-09T13:49:06.895Z,47.55
2023-04-09T13:54:27.714Z,47.04
2023-04-09T13:59:48.599Z,47.30
2023-04-09T14:05:09.605Z,47.01
2023-04-09T14:10:30.819Z,46.21
2023-04-09T14:15:51.736Z,46.56
2023-04-09T14:21:12.394Z,46.53
2023-04-09T14:26:33.177Z,46.20
2023-04-09T14:31:55.991Z,46.46
2023-04-09T14:37:18.228Z,46.15
2023-04-09T14:42:40.782Z,46.03
2023-04-09T14:48:01.521Z,45.70
2023-04-09T14:53:22.199Z,45.87
2023-04-09T14:58:42.735Z,45.64
2023-04-09T15:04:04.738Z,45.74
2023-04-09T15:09:25.450Z,45.92
2023-04-09T15:14:46.417Z,45.26
2023-04-09T15:20:07.907Z,45.43
2023-04-09T15:25:28.625Z,45.64
2023-04-09T15:30:49.426Z,45.65
2023-04-09T15:36:10.586Z,45.18
2023-04-09T15:41:32.372Z,45.09
2023-04-09T15:46:53.158Z,45.04
2023-04-09T15:52:13.925Z,45.20
2023-04-09T15:57:34.699Z,45.24
2023-04-09T16:02:55.356Z,44.96
2023-04-09T16:08:16.117Z,44.84
2023-04-09T16:13:37.294Z,44.95
2023-04-09T16:18:58.220Z,45.06
2023-04-09T16:24:19.975Z,45.00
2023-04-09T16:29:41.019Z,45.20
2023-04-09T16:35:02.557Z,45.02
2023-04-09T16:40:24.508Z,45.03
2023-04-09T16:45:45.392Z,45.30
2023-04-09T16:51:06.298Z,45.23
2023-04-09T16:56:27.514Z,45.36
2023-04-09T17:01:49.233Z,45.05
2023-04-09T17:07:10.173Z,45.65
2023-04-09T17:12:31.342Z,45.76
2023-04-09T17:17:53.646Z,45.59
2023-04-09T17:23:14.783Z,46.16
2023-04-09T17:28:36.173Z,45.95
2023-04-09T17:33:56.772Z,46.15
2023-04-09T17:39:18.078Z,46.22
2023-04-09T17:44:46.830Z,47.68
2023-04-09T17:50:35.662Z,49.07
2023-04-09T17:56:16.649Z,48.70
2023-04-09T18:02:42.523Z,52.35
2023-04-09T18:09:27.985Z,54.66
2023-04-09T18:14:32.488Z,52.91
2023-04-09T18:19:54.548Z,57.35
2023-04-09T18:25:15.823Z,56.22
2023-04-09T18:30:38.826Z,58.58
2023-04-09T18:36:01.341Z,56.99
2023-04-09T18:41:26.105Z,56.88
2023-04-09T18:46:47.472Z,56.72
2023-04-09T18:52:10.273Z,57.60
2023-04-09T18:57:33.294Z,58.23
2023-04-09T19:02:54.635Z,58.40
2023-04-09T19:08:16.543Z,58.92
2023-04-09T19:13:37.692Z,58.81
2023-04-09T19:18:58.759Z,58.97
2023-04-09T19:24:19.486Z,59.28
2023-04-09T19:29:40.726Z,59.99
2023-04-09T19:35:04.031Z,59.86
2023-04-09T19:40:25.725Z,59.64
2023-04-09T19:45:46.994Z,60.33
2023-04-09T19:51:08.314Z,60.35
2023-04-09T19:56:29.210Z,60.94
2023-04-09T20:01:50.951Z,61.23
2023-04-09T20:07:12.000Z,61.27
2023-04-09T20:12:32.759Z,61.27
2023-04-09T20:17:53.677Z,61.57
2023-04-09T20:23:16.756Z,61.80
2023-04-09T20:28:41.377Z,61.58
2023-04-09T20:34:30.757Z,61.45
2023-04-09T20:39:51.562Z,61.75
2023-04-09T20:45:12.572Z,61.87
2023-04-09T20:50:33.852Z,61.54
2023-04-09T20:55:54.949Z,61.69
2023-04-09T21:01:17.496Z,61.98
2023-04-09T21:07:06.856Z,62.56
2023-04-09T21:12:29.811Z,62.80
2023-04-09T21:17:50.864Z,63.32
2023-04-09T21:23:12.701Z,63.43
2023-04-09T21:28:33.586Z,63.88
2023-04-09T21:33:54.790Z,63.48
2023-04-09T21:39:15.580Z,63.83
2023-04-09T21:44:36.628Z,63.93
2023-04-09T21:50:26.409Z,64.15
2023-04-09T21:55:47.212Z,64.49
2023-04-09T22:01:13.111Z,64.40
2023-04-09T22:06:45.783Z,64.33
2023-04-09T22:12:07.268Z,64.66
2023-04-09T22:17:28.095Z,64.56
2023-04-09T22:22:49.175Z,65.09
2023-04-09T22:28:10.029Z,64.62
2023-04-09T22:33:31.222Z,64.80
2023-04-09T22:38:53.062Z,64.94
2023-04-09T22:44:14.173Z,65.47
2023-04-09T22:49:35.216Z,65.75
2023-04-09T22:54:56.542Z,65.31
2023-04-09T23:00:17.429Z,65.85
2023-04-09T23:05:38.338Z,65.80
2023-04-09T23:10:59.339Z,65.76
2023-04-09T23:16:19.985Z,66.38
2023-04-09T23:21:40.867Z,66.44
2023-04-09T23:27:02.399Z,66.20
2023-04-09T23:32:23.495Z,66.89
2023-04-09T23:37:44.378Z,66.39
2023-04-09T23:43:05.106Z,66.86
2023-04-09T23:48:25.898Z,66.70
2023-04-09T23:53:46.682Z,66.70
2023-04-09T23:59:07.693Z,66.89
